createdAt,value
2023-12-13T18:18:50.672Z,36.33
2023-12-13T18:19:27.190Z,35.63
2023-12-13T18:20:01.902Z,37.07
2023-12-13T18:20:40.670Z,35.70
2023-12-13T18:21:14.018Z,36.87
2023-12-13T18:21:52.921Z,38.13
2023-12-13T18:22:29.969Z,38.17
2023-12-13T18:23:03.908Z,36.87
2023-12-13T18:23:40.514Z,35.53
2023-12-13T18:24:14.096Z,35.83
2023-12-13T18:24:50.630Z,35.97
2023-12-13T18:25:24.319Z,36.43
2023-12-13T18:25:59.354Z,36.47
2023-12-13T18:26:32.740Z,37.07
2023-12-13T18:27:06.890Z,35.17
2023-12-13T18:27:41.550Z,34.50
2023-12-13T18:28:15.470Z,35.47
2023-12-13T18:28:48.885Z,35.20
2023-12-13T18:29:22.282Z,36.57
2023-12-13T18:29:56.531Z,37.23
2023-12-13T18:30:30.586Z,35.17
2023-12-13T18:31:05.092Z,35.87
2023-12-13T18:31:41.733Z,36.47
2023-12-13T18:32:18.583Z,36.00
2023-12-13T18:32:52.133Z,35.87
2023-12-13T18:33:26.052Z,35.20
2023-12-13T18:34:04.642Z,34.13
2023-12-13T18:34:38.724Z,34.07
2023-12-13T18:35:15.246Z,34.77
2023-12-13T18:35:52.487Z,34.23
2023-12-13T18:36:29.303Z,36.43
2023-12-13T18:37:06.842Z,33.43
2023-12-13T18:37:40.446Z,33.37
2023-12-13T18:38:19.253Z,32.90
2023-12-13T18:38:53.732Z,33.23
2023-12-13T18:39:29.645Z,34.93
2023-12-13T18:40:09.659Z,33.53
2023-12-13T18:40:44.244Z,33.40
2023-12-13T18:41:18.810Z,33.67
2023-12-13T18:41:52.485Z,32.53
2023-12-13T18:42:28.622Z,33.73
2023-12-13T18:43:02.125Z,33.73
2023-12-13T18:43:36.498Z,34.30
2023-12-13T18:44:09.989Z,32.33
2023-12-13T18:44:44.705Z,32.87
2023-12-13T18:45:20.581Z,33.63
2023-12-13T18:45:55.588Z,33.73
2023-12-13T18:46:29.134Z,32.50
2023-12-13T18:47:04.160Z,33.30
2023-12-13T18:47:39.262Z,34.47
2023-12-13T18:48:12.667Z,34.07
2023-12-13T18:48:46.372Z,32.30
2023-12-13T18:49:20.089Z,33.67
2023-12-13T18:49:55.927Z,33.07
2023-12-13T18:50:31.896Z,32.00
2023-12-13T18:51:06.524Z,32.83
2023-12-13T18:51:40.488Z,33.43
2023-12-13T18:52:18.766Z,31.40
2023-12-13T18:52:55.093Z,32.73
2023-12-13T18:53:28.956Z,32.60
2023-12-13T18:54:04.481Z,33.13
2023-12-13T18:54:37.911Z,31.23
2023-12-13T18:55:12.068Z,31.37
2023-12-13T18:55:49.107Z,32.17
2023-12-13T18:56:22.544Z,30.93
2023-12-13T18:57:01.914Z,31.37
2023-12-13T18:57:40.865Z,32.50
2023-12-13T18:58:16.857Z,31.13
2023-12-13T18:58:52.963Z,30.63
2023-12-13T18:59:26.700Z,29.60
2023-12-13T19:00:00.314Z,29.43
2023-12-13T19:00:34.372Z,29.73
2023-12-13T19:01:10.391Z,30.37
2023-12-13T19:01:44.153Z,29.27
2023-12-13T19:02:17.937Z,29.70
2023-12-13T19:02:52.303Z,29.87
2023-12-13T19:03:28.736Z,27.67
2023-12-13T19:04:03.409Z,28.43
2023-12-13T19:04:37.156Z,28.93
2023-12-13T19:05:13.485Z,27.73
2023-12-13T19:05:50.016Z,27.70
2023-12-13T19:06:26.331Z,29.00
2023-12-13T19:07:05.232Z,27.63
2023-12-13T19:07:39.603Z,28.83
2023-12-13T19:08:13.564Z,28.20
2023-12-13T19:08:47.195Z,27.30
2023-12-13T19:09:21.078Z,27.97
2023-12-13T19:09:54.513Z,29.03
2023-12-13T19:10:31.574Z,28.63
2023-12-13T19:11:08.832Z,27.30
2023-12-13T19:11:42.741Z,27.43
2023-12-13T19:12:16.451Z,28.40
2023-12-13T19:12:53.300Z,28.50
2023-12-13T19:13:30.723Z,27.97
2023-12-13T19:14:07.808Z,27.17
2023-12-13T19:14:45.836Z,28.03
2023-12-13T19:15:26.537Z,27.27
2023-12-13T19:16:01.001Z,26.97
2023-12-13T19:16:36.393Z,26.70
2023-12-13T19:17:12.644Z,26.97
2023-12-13T19:17:46.081Z,27.50
2023-12-13T19:18:23.692Z,27.83
2023-12-13T19:18:59.969Z,27.00
2023-12-13T19:19:36.533Z,28.20
2023-12-13T19:20:11.604Z,26.83
2023-12-13T19:20:46.380Z,26.43
2023-12-13T19:21:22.787Z,26.70
2023-12-13T19:21:59.039Z,26.33
2023-12-13T19:22:35.434Z,26.27
2023-12-13T19:23:08.899Z,25.80
2023-12-13T19:23:42.615Z,26.73
2023-12-13T19:24:18.381Z,27.90
2023-12-13T19:24:53.324Z,27.80
2023-12-13T19:25:26.944Z,26.70
2023-12-13T19:26:00.634Z,26.87
2023-12-13T19:26:37.083Z,26.20
2023-12-13T19:27:11.404Z,25.57
2023-12-13T19:27:44.913Z,26.77
2023-12-13T19:28:22.853Z,26.27
2023-12-13T19:29:04.005Z,26.80
2023-12-13T19:29:38.787Z,27.00
2023-12-13T19:30:13.951Z,27.60
2023-12-13T19:30:50.229Z,27.13
2023-12-13T19:31:23.702Z,27.13
2023-12-13T19:32:00.405Z,27.37
2023-12-13T19:32:34.424Z,26.57
2023-12-13T19:33:08.161Z,26.37
2023-12-13T19:33:41.970Z,26.20
2023-12-13T19:34:23.244Z,26.73
2023-12-13T19:35:06.278Z,27.57
2023-12-13T19:35:44.065Z,28.37
2023-12-13T19:36:20.657Z,27.70
2023-12-13T19:36:54.338Z,28.63
2023-12-13T19:37:27.862Z,29.13
2023-12-13T19:38:09.181Z,27.80
2023-12-13T19:38:49.773Z,28.13
2023-12-13T19:39:24.460Z,26.97
2023-12-13T19:40:00.806Z,27.10
2023-12-13T19:40:34.207Z,27.07
2023-12-13T19:41:07.896Z,27.27
2023-12-13T19:41:42.673Z,29.60
2023-12-13T19:42:19.701Z,30.13
2023-12-13T19:42:53.537Z,28.83
2023-12-13T19:43:28.617Z,28.00
2023-12-13T19:44:02.784Z,28.60
2023-12-13T19:44:38.200Z,28.27
2023-12-13T19:45:11.938Z,28.47
2023-12-13T19:45:48.067Z,29.20
2023-12-13T19:46:24.649Z,28.80
2023-12-13T19:47:02.376Z,28.17
2023-12-13T19:47:37.456Z,28.30
2023-12-13T19:48:11.062Z,28.00
2023-12-13T19:48:47.460Z,28.63
2023-12-13T19:49:20.966Z,29.80
2023-12-13T19:49:54.718Z,28.50
2023-12-13T19:50:28.378Z,28.57
2023-12-13T19:51:09.883Z,27.60
2023-12-13T19:51:43.887Z,26.93
2023-12-13T19:52:20.065Z,27.23
2023-12-13T19:52:54.130Z,27.70
2023-12-13T19:53:28.797Z,27.40
2023-12-13T19:54:05.319Z,27.57
2023-12-13T19:54:39.203Z,25.83
2023-12-13T19:55:14.565Z,26.27
2023-12-13T19:55:48.269Z,25.83
2023-12-13T19:56:24.724Z,24.73
2023-12-13T19:56:58.319Z,26.13
2023-12-13T19:57:34.714Z,26.77
2023-12-13T19:58:12.150Z,25.53
2023-12-13T19:58:46.704Z,25.57
2023-12-13T19:59:23.399Z,25.80
2023-12-13T19:59:57.129Z,24.77
2023-12-13T20:00:30.547Z,24.50
2023-12-13T20:01:08.296Z,25.77
2023-12-13T20:01:42.013Z,26.70
2023-12-13T20:02:17.620Z,27.93
2023-12-13T20:02:54.373Z,27.63
2023-12-13T20:03:27.898Z,26.90
2023-12-13T20:04:02.430Z,27.67
2023-12-13T20:04:37.411Z,27.97
2023-12-13T20:05:11.138Z,27.43
2023-12-13T20:05:44.812Z,28.00
2023-12-13T20:06:20.658Z,26.07
2023-12-13T20:06:53.994Z,25.13
2023-12-13T20:07:30.566Z,25.90
2023-12-13T20:08:07.074Z,25.10
2023-12-13T20:08:40.727Z,25.03
2023-12-13T20:09:18.614Z,24.93
2023-12-13T20:09:53.282Z,24.80
2023-12-13T20:10:32.404Z,24.40
2023-12-13T20:11:06.139Z,25.27
2023-12-13T20:11:41.333Z,24.47
2023-12-13T20:12:20.188Z,24.67
2023-12-13T20:12:56.702Z,24.77
2023-12-13T20:13:34.217Z,25.03
2023-12-13T20:14:10.434Z,23.97
2023-12-13T20:14:44.147Z,24.07
2023-12-13T20:15:21.687Z,23.97
2023-12-13T20:15:56.766Z,25.17
2023-12-13T20:16:35.035Z,24.43
2023-12-13T20:17:08.882Z,25.80
2023-12-13T20:17:46.211Z,25.80
2023-12-13T20:18:23.129Z,24.70
2023-12-13T20:18:56.576Z,25.70
2023-12-13T20:19:30.278Z,24.87
2023-12-13T20:20:07.584Z,25.60
2023-12-13T20:20:44.719Z,25.83
2023-12-13T20:21:18.143Z,25.63
2023-12-13T20:21:54.498Z,26.23
2023-12-13T20:22:28.597Z,27.17
2023-12-13T20:23:05.215Z,26.37
2023-12-13T20:23:42.990Z,26.40
2023-12-13T20:24:19.518Z,27.40
2023-12-13T20:24:53.661Z,27.87
2023-12-13T20:25:31.026Z,26.60
2023-12-13T20:26:08.686Z,25.87
2023-12-13T20:26:42.269Z,26.13
2023-12-13T20:27:18.319Z,27.53
2023-12-13T20:27:53.315Z,26.87
2023-12-13T20:28:27.042Z,26.80
2023-12-13T20:29:00.392Z,26.57
2023-12-13T20:29:37.977Z,26.57
2023-12-13T20:30:13.513Z,27.10
2023-12-13T20:30:47.175Z,28.80
2023-12-13T20:31:21.428Z,28.83
2023-12-13T20:31:56.091Z,29.37
2023-12-13T20:32:30.113Z,27.73
2023-12-13T20:33:08.681Z,28.20
2023-12-13T20:33:44.918Z,27.30
2023-12-13T20:34:18.406Z,28.50
2023-12-13T20:35:04.284Z,27.07
2023-12-13T20:35:37.904Z,28.93
2023-12-13T20:36:11.642Z,27.80
2023-12-13T20:36:44.963Z,27.07
2023-12-13T20:37:19.401Z,28.37
2023-12-13T20:37:53.007Z,28.23
2023-12-13T20:38:26.738Z,28.87
2023-12-13T20:39:00.134Z,28.90
2023-12-13T20:39:34.337Z,30.20
2023-12-13T20:40:09.054Z,29.77
2023-12-13T20:40:43.493Z,28.83
2023-12-13T20:41:17.117Z,29.83
2023-12-13T20:41:53.967Z,29.47
2023-12-13T20:42:28.048Z,28.83
2023-12-13T20:43:01.520Z,29.10
2023-12-13T20:43:35.414Z,27.67
2023-12-13T20:44:09.068Z,28.67
2023-12-13T20:44:42.811Z,29.10
2023-12-13T20:45:16.620Z,30.37
2023-12-13T20:45:53.427Z,30.57
2023-12-13T20:46:30.179Z,27.63
2023-12-13T20:47:05.164Z,28.43
2023-12-13T20:47:43.563Z,30.10
2023-12-13T20:48:17.348Z,29.23
2023-12-13T20:48:51.062Z,28.53
2023-12-13T20:49:24.801Z,28.73
2023-12-13T20:50:09.071Z,29.17
2023-12-13T20:50:43.394Z,28.63
2023-12-13T20:51:17.087Z,29.23
2023-12-13T20:51:50.790Z,29.50
2023-12-13T20:52:24.822Z,28.70
2023-12-13T20:52:58.518Z,28.20
2023-12-13T20:53:32.572Z,29.20
2023-12-13T20:54:08.668Z,30.07
2023-12-13T20:54:42.268Z,30.53
2023-12-13T20:55:16.485Z,29.97
2023-12-13T20:55:50.428Z,29.00
2023-12-13T20:56:26.102Z,30.53
2023-12-13T20:57:00.952Z,30.30
2023-12-13T20:57:34.836Z,30.50
2023-12-13T20:58:08.734Z,30.67
2023-12-13T20:58:42.150Z,31.23
2023-12-13T20:59:15.682Z,30.53
2023-12-13T20:59:49.261Z,29.17
2023-12-13T21:00:22.828Z,27.83
2023-12-13T21:00:57.247Z,29.80
2023-12-13T21:01:30.665Z,29.37
2023-12-13T21:02:06.906Z,29.67
2023-12-13T21:02:40.600Z,31.33
2023-12-13T21:03:14.222Z,31.17
2023-12-13T21:03:50.615Z,30.77
2023-12-13T21:04:24.004Z,31.50
2023-12-13T21:04:57.658Z,30.83
2023-12-13T21:05:31.720Z,32.10
2023-12-13T21:06:07.065Z,31.50
2023-12-13T21:06:40.786Z,31.53
2023-12-13T21:07:18.455Z,31.37
2023-12-13T21:07:52.095Z,30.40
2023-12-13T21:08:28.234Z,31.90
2023-12-13T21:09:01.806Z,31.67
2023-12-13T21:09:35.122Z,28.90
2023-12-13T21:10:09.262Z,31.30
2023-12-13T21:10:42.850Z,32.13
2023-12-13T21:11:16.466Z,30.93
2023-12-13T21:11:50.037Z,31.90
2023-12-13T21:12:23.382Z,31.13
2023-12-13T21:12:56.700Z,30.20
2023-12-13T21:13:30.385Z,30.83
2023-12-13T21:14:05.568Z,31.47
2023-12-13T21:14:39.377Z,31.50
2023-12-13T21:15:13.445Z,32.83
2023-12-13T21:15:46.969Z,31.07
2023-12-13T21:16:20.355Z,31.87
2023-12-13T21:16:54.484Z,31.63
2023-12-13T21:17:28.171Z,31.30
2023-12-13T21:18:02.058Z,30.83
2023-12-13T21:18:36.075Z,28.73
2023-12-13T21:19:10.003Z,30.93
2023-12-13T21:19:44.834Z,30.43
2023-12-13T21:20:18.546Z,29.80
2023-12-13T21:20:52.822Z,29.53
2023-12-13T21:21:26.390Z,29.87
2023-12-13T21:21:59.980Z,29.30
2023-12-13T21:22:34.011Z,30.63
2023-12-13T21:23:08.055Z,28.83
2023-12-13T21:23:41.384Z,30.87
2023-12-13T21:24:17.768Z,29.60
2023-12-13T21:24:51.661Z,28.73
2023-12-13T21:25:25.152Z,30.33
2023-12-13T21:25:58.532Z,29.37
2023-12-13T21:26:31.898Z,29.40
2023-12-13T21:27:08.394Z,30.10
2023-12-13T21:27:42.112Z,28.57
2023-12-13T21:28:18.603Z,29.63
2023-12-13T21:28:52.172Z,30.37
2023-12-13T21:29:28.605Z,30.77
2023-12-13T21:30:05.814Z,31.47
2023-12-13T21:30:39.617Z,31.90
2023-12-13T21:31:15.938Z,30.13
2023-12-13T21:31:49.770Z,30.50
2023-12-13T21:32:23.193Z,29.23
2023-12-13T21:33:00.003Z,29.43
2023-12-13T21:33:34.855Z,30.47
2023-12-13T21:34:09.765Z,30.83
2023-12-13T21:34:43.453Z,29.30
2023-12-13T21:35:17.148Z,28.80
2023-12-13T21:35:50.800Z,27.23
2023-12-13T21:36:24.542Z,28.07
2023-12-13T21:36:58.175Z,27.40
2023-12-13T21:37:31.865Z,26.77
2023-12-13T21:38:07.299Z,26.90
2023-12-13T21:38:40.938Z,26.60
2023-12-13T21:39:14.772Z,26.27
2023-12-13T21:39:48.429Z,25.90
2023-12-13T21:40:22.044Z,25.30
2023-12-13T21:40:58.828Z,25.67
2023-12-13T21:41:32.405Z,27.33
2023-12-13T21:42:08.755Z,26.10
2023-12-13T21:42:42.431Z,24.70
2023-12-13T21:43:15.890Z,24.83
2023-12-13T21:43:49.517Z,23.50
2023-12-13T21:44:22.827Z,23.33
2023-12-13T21:44:56.323Z,22.47
2023-12-13T21:45:30.403Z,21.70
2023-12-13T21:46:05.164Z,21.53
2023-12-13T21:46:39.063Z,20.93
2023-12-13T21:47:13.828Z,20.77
2023-12-13T21:47:49.909Z,19.33
2023-12-13T21:48:23.842Z,20.17
2023-12-13T21:48:57.639Z,19.30
2023-12-13T21:49:31.020Z,19.77
2023-12-13T21:50:08.541Z,19.50
2023-12-13T21:50:45.062Z,20.00
2023-12-13T21:51:19.329Z,18.30
2023-12-13T21:51:52.886Z,17.33
2023-12-13T21:52:26.935Z,18.30
2023-12-13T21:53:00.478Z,19.10
2023-12-13T21:53:34.107Z,17.20
2023-12-13T21:54:07.596Z,15.73
2023-12-13T21:54:40.962Z,15.80
2023-12-13T21:55:14.920Z,15.50
2023-12-13T21:55:48.304Z,16.03
2023-12-13T21:56:23.608Z,15.50
2023-12-13T21:56:57.381Z,15.70
2023-12-13T21:57:33.862Z,14.07
2023-12-13T21:58:07.227Z,14.87
2023-12-13T21:58:42.153Z,16.23
2023-12-13T21:59:15.962Z,16.07
2023-12-13T21:59:50.327Z,14.93
2023-12-13T22:00:24.012Z,12.97
2023-12-13T22:00:57.776Z,13.17
2023-12-13T22:01:31.437Z,12.47
2023-12-13T22:02:05.666Z,11.60
2023-12-13T22:02:39.383Z,12.07
2023-12-13T22:03:12.699Z,11.60
2023-12-13T22:03:50.532Z,10.70
2023-12-13T22:04:24.357Z,11.33
2023-12-13T22:04:57.864Z,11.97
2023-12-13T22:05:31.523Z,12.00
2023-12-13T22:06:06.781Z,11.67
2023-12-13T22:06:42.543Z,11.10
2023-12-13T22:07:15.813Z,12.20
2023-12-13T22:07:52.223Z,12.73
2023-12-13T22:08:28.649Z,12.37
2023-12-13T22:09:01.944Z,13.10
2023-12-13T22:09:38.396Z,11.93
2023-12-13T22:10:12.877Z,11.47
2023-12-13T22:10:50.876Z,11.00
2023-12-13T22:11:24.698Z,10.67
2023-12-13T22:11:58.321Z,11.13
2023-12-13T22:12:31.891Z,10.23
2023-12-13T22:13:05.698Z,10.20
2023-12-13T22:13:39.298Z,11.13
2023-12-13T22:14:12.840Z,11.60
2023-12-13T22:14:46.660Z,10.73
2023-12-13T22:15:21.374Z,10.37
2023-12-13T22:15:59.522Z,10.93
2023-12-13T22:16:33.247Z,11.47
2023-12-13T22:17:06.850Z,11.50
2023-12-13T22:17:41.521Z,10.97
2023-12-13T22:18:23.317Z,10.90
2023-12-13T22:19:11.907Z,11.10
2023-12-13T22:19:49.623Z,11.00
2023-12-13T22:20:25.982Z,10.67
2023-12-13T22:20:59.315Z,11.07
2023-12-13T22:21:33.648Z,10.60
2023-12-13T22:22:07.153Z,10.33
2023-12-13T22:22:40.860Z,10.07
2023-12-13T22:23:14.471Z,10.87
2023-12-13T22:23:53.124Z,11.20
2023-12-13T22:24:28.627Z,11.67
2023-12-13T22:25:02.228Z,10.90
2023-12-13T22:25:38.497Z,11.33
2023-12-13T22:26:11.856Z,11.57
2023-12-13T22:26:45.573Z,11.23
2023-12-13T22:27:19.103Z,11.60
2023-12-13T22:27:52.584Z,11.83
2023-12-13T22:28:27.543Z,12.10
2023-12-13T22:29:01.036Z,11.13
2023-12-13T22:29:35.048Z,10.63
2023-12-13T22:30:08.863Z,11.33
2023-12-13T22:30:42.438Z,12.10
2023-12-13T22:31:16.363Z,11.23
2023-12-13T22:31:49.946Z,11.93
2023-12-13T22:32:23.552Z,11.23
2023-12-13T22:32:57.113Z,12.00
2023-12-13T22:33:30.830Z,17.73
2023-12-13T22:34:05.438Z,18.33
2023-12-13T22:34:39.131Z,17.80
2023-12-13T22:35:18.408Z,13.07
2023-12-13T22:35:52.284Z,11.87
2023-12-13T22:36:27.018Z,11.50
2023-12-13T22:37:00.643Z,11.33
2023-12-13T22:37:34.256Z,11.97
2023-12-13T22:38:08.049Z,11.60
2023-12-13T22:38:44.578Z,11.50
2023-12-13T22:39:18.511Z,10.63
2023-12-13T22:39:51.899Z,11.50
2023-12-13T22:40:25.423Z,11.03
2023-12-13T22:40:58.815Z,11.27
2023-12-13T22:41:32.809Z,11.37
2023-12-13T22:42:06.703Z,10.50
2023-12-13T22:42:42.786Z,10.70
2023-12-13T22:43:16.439Z,10.43
2023-12-13T22:43:50.089Z,10.67
2023-12-13T22:44:23.686Z,11.57
2023-12-13T22:44:57.398Z,10.93
2023-12-13T22:45:30.928Z,11.10
2023-12-13T22:46:05.604Z,10.90
2023-12-13T22:46:39.151Z,10.07
2023-12-13T22:47:12.930Z,11.27
2023-12-13T22:47:48.266Z,11.40
2023-12-13T22:48:24.550Z,10.93
2023-12-13T22:48:58.224Z,10.93
2023-12-13T22:49:36.883Z,10.50
2023-12-13T22:50:10.825Z,10.40
2023-12-13T22:50:44.413Z,10.33
2023-12-13T22:51:17.878Z,10.70
2023-12-13T22:52:18.798Z,10.67
2023-12-13T22:52:45.497Z,9.13
2023-12-13T22:53:19.209Z,10.50
2023-12-13T22:53:52.595Z,10.17
2023-12-13T22:54:25.905Z,9.77
2023-12-13T22:54:59.197Z,9.97
2023-12-13T22:55:32.768Z,10.13
2023-12-13T22:56:07.106Z,10.07
2023-12-13T22:56:43.324Z,9.27
2023-12-13T22:57:16.840Z,8.90
2023-12-13T22:57:50.308Z,8.47
2023-12-13T22:58:24.105Z,9.00
2023-12-13T22:59:00.143Z,8.63
2023-12-13T22:59:33.778Z,8.90
2023-12-13T23:00:20.548Z,8.80
2023-12-13T23:00:54.207Z,8.67
2023-12-13T23:01:27.952Z,8.93
2023-12-13T23:02:03.634Z,8.93
2023-12-13T23:02:37.827Z,8.33
2023-12-13T23:03:11.748Z,9.47
2023-12-13T23:03:51.770Z,8.63
2023-12-13T23:04:30.451Z,8.57
2023-12-13T23:05:05.029Z,8.67
2023-12-13T23:05:39.410Z,8.33
2023-12-13T23:06:13.070Z,9.40
